createdAt,value
2023-04-18T00:01:30.473Z,79.30
2023-04-18T00:03:58.070Z,78.40
2023-04-18T00:06:25.895Z,78.30
2023-04-18T00:08:53.246Z,78.20
2023-04-18T00:11:20.699Z,77.80
2023-04-18T00:13:48.121Z,77.30
2023-04-18T00:16:15.756Z,76.20
2023-04-18T00:18:42.975Z,76.20
2023-04-18T00:21:10.177Z,75.60
2023-04-18T00:23:37.345Z,75.40
2023-04-18T00:26:04.664Z,74.50
2023-04-18T00:28:31.861Z,74.30
2023-04-18T00:30:59.131Z,73.70
2023-04-18T00:33:26.590Z,73.40
2023-04-18T00:35:54.083Z,72.60
2023-04-18T00:38:21.333Z,72.30
2023-04-18T00:40:48.587Z,71.80
2023-04-18T00:43:16.912Z,71.50
2023-04-18T00:45:44.491Z,71.20
2023-04-18T00:48:11.940Z,71.30
2023-04-18T00:50:41.659Z,71.20
2023-04-18T00:53:10.742Z,71.50
2023-04-18T00:55:38.732Z,71.60
2023-04-18T00:58:06.364Z,71.50
2023-04-18T01:00:33.723Z,71.40
2023-04-18T01:03:01.183Z,70.90
2023-04-18T01:05:28.729Z,70.60
2023-04-18T01:08:01.004Z,70.30
2023-04-18T01:10:30.534Z,70.00
2023-04-18T01:13:30.254Z,70.40
2023-04-18T01:15:58.928Z,70.20
2023-04-18T01:18:27.339Z,69.80
2023-04-18T01:21:00.122Z,69.90
2023-04-18T01:23:27.322Z,70.30
2023-04-18T01:25:54.521Z,69.90
2023-04-18T01:28:22.707Z,70.10
2023-04-18T01:30:49.953Z,70.10
2023-04-18T01:33:17.433Z,70.00
2023-04-18T01:35:47.553Z,69.90
2023-04-18T01:38:14.799Z,69.90
2023-04-18T01:40:42.103Z,69.70
2023-04-18T01:43:09.372Z,69.80
2023-04-18T01:45:38.442Z,69.80
2023-04-18T01:48:06.001Z,70.00
2023-04-18T01:50:33.650Z,70.50
2023-04-18T01:53:00.884Z,69.50
2023-04-18T01:55:28.078Z,69.10
2023-04-18T01:57:55.432Z,69.20
2023-04-18T02:00:22.756Z,69.10
2023-04-18T02:02:50.485Z,69.10
2023-04-18T02:05:17.961Z,69.40
2023-04-18T02:07:45.581Z,69.20
2023-04-18T02:10:12.821Z,68.60
2023-04-18T02:12:40.057Z,68.70
2023-04-18T02:15:07.809Z,69.20
2023-04-18T02:17:36.739Z,68.40
2023-04-18T02:20:04.599Z,68.30
2023-04-18T02:22:31.861Z,68.20
2023-04-18T02:25:01.089Z,68.50
2023-04-18T02:27:28.334Z,68.80
2023-04-18T02:29:57.445Z,68.90
2023-04-18T02:32:25.111Z,68.90
2023-04-18T02:34:52.386Z,69.10
2023-04-18T02:37:19.634Z,69.10
2023-04-18T02:39:46.853Z,69.10
2023-04-18T02:42:14.749Z,69.10
2023-04-18T02:44:42.062Z,69.10
2023-04-18T02:47:09.987Z,69.30
2023-04-18T02:49:40.235Z,68.80
2023-04-18T02:52:07.431Z,69.20
2023-04-18T02:54:34.903Z,69.10
2023-04-18T02:57:09.789Z,69.10
2023-04-18T02:59:53.075Z,69.50
2023-04-18T03:02:23.326Z,69.80
2023-04-18T03:04:56.525Z,70.20
2023-04-18T03:07:24.122Z,70.60
2023-04-18T03:09:52.582Z,70.60
2023-04-18T03:12:25.001Z,70.50
2023-04-18T03:14:52.358Z,70.50
2023-04-18T03:17:20.715Z,70.70
2023-04-18T03:19:49.758Z,70.80
2023-04-18T03:22:19.832Z,71.00
2023-04-18T03:24:56.154Z,71.10
2023-04-18T03:27:35.821Z,71.00
2023-04-18T03:30:03.830Z,71.20
2023-04-18T03:32:33.791Z,71.10
2023-04-18T03:35:01.094Z,71.30
2023-04-18T03:37:28.569Z,71.10
2023-04-18T03:39:57.234Z,71.30
2023-04-18T03:42:27.190Z,71.30
2023-04-18T03:44:54.394Z,71.40
2023-04-18T03:47:21.720Z,71.90
2023-04-18T03:49:54.843Z,72.30
2023-04-18T03:52:24.243Z,72.40
2023-04-18T03:54:51.565Z,72.70
2023-04-18T03:57:22.539Z,72.60
2023-04-18T03:59:49.852Z,72.50
2023-04-18T04:02:17.194Z,72.00
2023-04-18T04:04:44.479Z,71.00
2023-04-18T04:07:13.973Z,71.20
2023-04-18T04:09:41.178Z,71.40
2023-04-18T04:12:08.446Z,72.00
2023-04-18T04:14:36.336Z,72.70
2023-04-18T04:17:03.999Z,72.80
2023-04-18T04:19:32.037Z,72.80
2023-04-18T04:22:08.962Z,73.00
2023-04-18T04:24:38.561Z,73.30
2023-04-18T04:27:08.059Z,73.00
2023-04-18T04:29:39.120Z,72.60
2023-04-18T04:32:08.025Z,72.80
2023-04-18T04:34:38.157Z,72.60
2023-04-18T04:37:08.198Z,72.70
2023-04-18T04:39:41.712Z,72.60
2023-04-18T04:42:26.146Z,72.80
2023-04-18T04:45:01.552Z,73.30
2023-04-18T04:47:28.939Z,73.20
2023-04-18T04:49:56.226Z,73.30
2023-04-18T04:52:23.524Z,73.20
2023-04-18T04:54:51.944Z,73.40
2023-04-18T04:57:21.195Z,73.20
2023-04-18T04:59:48.488Z,73.30
2023-04-18T05:02:15.896Z,73.30
2023-04-18T05:04:43.395Z,73.40
2023-04-18T05:07:10.832Z,73.20
2023-04-18T05:09:38.041Z,73.00
2023-04-18T05:12:05.607Z,73.20
2023-04-18T05:14:32.886Z,72.90
2023-04-18T05:17:00.358Z,72.90
2023-04-18T05:19:27.566Z,73.30
2023-04-18T05:21:54.779Z,73.40
2023-04-18T05:24:21.987Z,73.30
2023-04-18T05:26:49.227Z,73.80
2023-04-18T05:29:16.516Z,73.60
2023-04-18T05:31:43.726Z,73.80
2023-04-18T05:34:11.025Z,72.80
2023-04-18T05:36:38.297Z,72.80
2023-04-18T05:39:05.538Z,74.50
2023-04-18T05:41:32.786Z,73.70
2023-04-18T05:44:05.366Z,73.90
2023-04-18T05:46:33.509Z,73.80
2023-04-18T05:49:01.199Z,73.30
2023-04-18T05:51:28.632Z,73.70
2023-04-18T05:53:56.042Z,73.30
2023-04-18T05:56:23.414Z,73.50
2023-04-18T05:58:51.356Z,73.80
2023-04-18T06:01:18.767Z,73.60
2023-04-18T06:03:46.196Z,73.60
2023-04-18T06:06:13.756Z,73.80
2023-04-18T06:08:40.954Z,73.70
2023-04-18T06:11:10.806Z,73.60
2023-04-18T06:13:38.004Z,73.20
2023-04-18T06:16:06.047Z,73.40
2023-04-18T06:18:33.791Z,73.40
2023-04-18T06:21:00.934Z,73.50
2023-04-18T06:23:28.090Z,73.00
2023-04-18T06:25:55.626Z,73.10
2023-04-18T06:28:22.832Z,73.10
2023-04-18T06:30:50.034Z,73.10
2023-04-18T06:33:17.150Z,72.90
2023-04-18T06:35:44.410Z,72.60
2023-04-18T06:38:12.070Z,72.90
2023-04-18T06:40:39.310Z,73.10
2023-04-18T06:43:06.555Z,73.10
2023-04-18T06:45:33.859Z,73.30
2023-04-18T06:48:03.715Z,73.50
2023-04-18T06:50:31.510Z,73.30
2023-04-18T06:52:58.772Z,73.10
2023-04-18T06:55:25.996Z,72.90
2023-04-18T06:57:53.299Z,73.00
2023-04-18T07:00:20.999Z,73.30
2023-04-18T07:02:48.616Z,72.90
2023-04-18T07:05:15.841Z,72.90
2023-04-18T07:07:43.070Z,72.10
2023-04-18T07:10:11.393Z,71.50
2023-04-18T07:12:38.741Z,71.90
2023-04-18T07:15:06.549Z,71.30
2023-04-18T07:17:33.815Z,71.20
2023-04-18T07:20:01.310Z,70.00
2023-04-18T07:22:28.562Z,70.10
2023-04-18T07:24:58.122Z,69.10
2023-04-18T07:27:25.913Z,69.60
2023-04-18T07:29:53.096Z,69.10
2023-04-18T07:32:20.322Z,69.10
2023-04-18T07:34:48.415Z,68.10
2023-04-18T07:37:17.517Z,67.30
2023-04-18T07:39:44.752Z,67.30
2023-04-18T07:42:12.038Z,67.00
2023-04-18T07:44:39.421Z,67.40
2023-04-18T07:47:11.379Z,67.00
2023-04-18T07:49:39.057Z,68.00
2023-04-18T07:52:06.288Z,67.90
2023-04-18T07:54:33.486Z,68.10
2023-04-18T07:57:00.946Z,66.50
2023-04-18T07:59:29.621Z,66.30
2023-04-18T08:01:56.907Z,67.10
2023-04-18T08:04:24.992Z,65.50
2023-04-18T08:06:53.806Z,64.30
2023-04-18T08:09:21.797Z,62.90
2023-04-18T08:11:49.008Z,63.50
2023-04-18T08:14:16.269Z,65.70
2023-04-18T08:16:43.510Z,65.20
2023-04-18T08:19:10.824Z,63.70
2023-04-18T08:21:39.298Z,63.30
2023-04-18T08:24:06.908Z,62.90
2023-04-18T08:26:34.132Z,63.40
2023-04-18T08:29:01.346Z,64.00
2023-04-18T08:31:28.615Z,62.80
2023-04-18T08:33:56.017Z,63.10
2023-04-18T08:36:24.912Z,64.20
2023-04-18T08:38:52.134Z,64.50
2023-04-18T08:41:23.502Z,64.10
2023-04-18T08:43:51.009Z,63.40
2023-04-18T08:46:19.107Z,63.60
2023-04-18T08:48:49.970Z,63.30
2023-04-18T08:51:17.581Z,62.20
2023-04-18T08:53:45.115Z,61.60
2023-04-18T08:56:14.626Z,60.40
2023-04-18T08:58:42.372Z,60.80
2023-04-18T09:01:10.215Z,62.40
2023-04-18T09:03:42.052Z,57.60
2023-04-18T09:06:18.931Z,56.80
2023-04-18T09:09:11.372Z,57.10
2023-04-18T09:11:38.786Z,56.20
2023-04-18T09:14:06.102Z,55.30
2023-04-18T09:16:46.795Z,55.30
2023-04-18T09:19:19.093Z,56.10
2023-04-18T09:21:47.220Z,56.30
2023-04-18T09:24:18.253Z,56.40
2023-04-18T09:26:45.444Z,55.50
2023-04-18T09:29:13.592Z,54.50
2023-04-18T09:31:55.820Z,54.80
2023-04-18T09:34:27.555Z,54.80
2023-04-18T09:37:11.737Z,54.70
2023-04-18T09:39:43.414Z,55.90
2023-04-18T09:42:11.135Z,55.30
2023-04-18T09:44:57.270Z,55.70
2023-04-18T09:47:24.553Z,54.60
2023-04-18T09:49:52.314Z,52.80
2023-04-18T09:52:20.488Z,53.70
2023-04-18T09:54:49.675Z,56.50
2023-04-18T09:57:19.027Z,54.80
2023-04-18T10:04:38.496Z,53.20
2023-04-18T10:07:06.097Z,54.60
2023-04-18T10:09:36.713Z,54.50
2023-04-18T10:12:04.178Z,54.20
2023-04-18T10:14:33.374Z,53.40
2023-04-18T10:17:01.046Z,54.70
2023-04-18T10:19:30.252Z,57.30
2023-04-18T10:21:59.465Z,54.90
2023-04-18T10:24:45.275Z,45.80
2023-04-18T10:27:12.524Z,47.10
2023-04-18T10:29:53.876Z,42.60
2023-04-18T10:32:24.243Z,43.80
2023-04-18T10:34:53.741Z,43.60
2023-04-18T10:37:21.063Z,41.50
2023-04-18T10:40:06.250Z,40.30
2023-04-18T10:42:48.498Z,37.90
2023-04-18T10:45:22.822Z,30.60
2023-04-18T10:47:50.713Z,29.70
2023-04-18T10:50:17.913Z,31.70
2023-04-18T10:52:45.145Z,33.70
2023-04-18T10:55:20.708Z,38.00
2023-04-18T10:57:49.253Z,40.30
2023-04-18T11:00:18.783Z,42.50
2023-04-18T11:02:51.489Z,45.60
2023-04-18T11:05:21.801Z,44.10
2023-04-18T11:07:49.288Z,40.80
2023-04-18T11:10:19.900Z,40.10
2023-04-18T11:12:47.974Z,40.50
2023-04-18T11:15:23.374Z,41.40
2023-04-18T11:17:58.188Z,42.20
2023-04-18T11:20:25.732Z,43.80
2023-04-18T11:22:54.717Z,46.30
2023-04-18T11:25:34.950Z,45.30
2023-04-18T11:28:03.771Z,39.30
2023-04-18T11:30:41.946Z,39.40
2023-04-18T11:33:11.236Z,41.00
2023-04-18T11:35:39.536Z,43.10
2023-04-18T11:38:07.974Z,44.90
2023-04-18T11:40:36.690Z,45.90
2023-04-18T11:43:06.044Z,45.50
2023-04-18T11:45:33.490Z,45.70
2023-04-18T11:48:01.299Z,46.10
2023-04-18T11:50:28.569Z,46.80
2023-04-18T11:52:56.383Z,47.40
2023-04-18T11:55:27.054Z,46.90
2023-04-18T11:57:56.732Z,47.50
2023-04-18T12:00:42.046Z,46.90
2023-04-18T12:03:17.224Z,47.40
2023-04-18T12:05:44.994Z,47.30
2023-04-18T12:08:17.251Z,48.10
2023-04-18T12:10:51.908Z,49.10
2023-04-18T12:13:26.815Z,50.60
2023-04-18T12:15:54.532Z,49.70
2023-04-18T12:18:24.509Z,50.50
2023-04-18T12:20:54.129Z,48.00
2023-04-18T12:23:37.561Z,47.90
2023-04-18T12:26:13.357Z,47.00
2023-04-18T12:28:45.753Z,47.70
2023-04-18T12:31:13.068Z,48.20
2023-04-18T12:33:40.506Z,47.20
2023-04-18T12:36:11.099Z,46.00
2023-04-18T12:38:38.279Z,46.70
2023-04-18T12:41:05.576Z,45.20
2023-04-18T12:43:32.726Z,45.40
2023-04-18T12:46:00.147Z,44.60
2023-04-18T12:48:27.815Z,42.90
2023-04-18T12:50:54.989Z,41.10
2023-04-18T12:53:22.219Z,42.20
2023-04-18T12:55:49.543Z,42.10
2023-04-18T12:58:18.652Z,42.80
2023-04-18T13:00:46.238Z,44.60
2023-04-18T13:03:13.742Z,45.90
2023-04-18T13:05:41.372Z,44.60
2023-04-18T13:08:16.946Z,45.50
2023-04-18T13:10:46.143Z,46.00
2023-04-18T13:13:13.476Z,46.00
2023-04-18T13:15:41.115Z,46.10
2023-04-18T13:18:08.401Z,47.20
2023-04-18T13:20:36.655Z,45.70
2023-04-18T13:23:03.999Z,46.20
2023-04-18T13:25:31.330Z,45.90
2023-04-18T13:28:00.753Z,46.40
2023-04-18T13:30:28.175Z,47.20
2023-04-18T13:32:55.546Z,47.20
2023-04-18T13:35:22.863Z,47.00
2023-04-18T13:37:50.225Z,47.10
2023-04-18T13:40:17.587Z,46.30
2023-04-18T13:42:44.751Z,47.60
2023-04-18T13:45:12.050Z,47.80
2023-04-18T13:47:39.607Z,47.80
2023-04-18T13:50:08.035Z,48.20
2023-04-18T13:52:35.349Z,47.00
2023-04-18T13:55:02.519Z,48.30
2023-04-18T13:57:32.107Z,48.70
2023-04-18T13:59:59.511Z,46.70
2023-04-18T14:02:26.920Z,45.80
2023-04-18T14:04:55.027Z,46.70
2023-04-18T14:07:22.341Z,47.30
2023-04-18T14:09:50.489Z,47.80
2023-04-18T14:12:18.759Z,45.20
2023-04-18T14:14:45.968Z,43.20
2023-04-18T14:17:13.189Z,43.50
2023-04-18T14:19:40.404Z,45.20
2023-04-18T14:22:07.952Z,45.40
2023-04-18T14:24:36.374Z,44.40
2023-04-18T14:27:03.921Z,46.70
2023-04-18T14:29:31.161Z,46.40
2023-04-18T14:31:58.463Z,42.20
2023-04-18T14:34:25.775Z,39.90
2023-04-18T14:36:52.978Z,39.70
2023-04-18T14:39:20.191Z,39.20
2023-04-18T14:41:47.420Z,39.50
2023-04-18T14:44:14.979Z,38.70
2023-04-18T14:46:43.462Z,39.80
2023-04-18T14:49:10.766Z,41.10
2023-04-18T14:51:38.307Z,40.00
2023-04-18T14:54:05.604Z,40.40
2023-04-18T14:56:32.814Z,38.50
2023-04-18T14:59:06.636Z,37.80
2023-04-18T15:01:33.958Z,37.30
2023-04-18T15:04:03.407Z,36.20
2023-04-18T15:06:31.033Z,35.20
2023-04-18T15:08:58.197Z,35.30
2023-04-18T15:11:27.045Z,34.60
2023-04-18T15:13:54.538Z,34.10
2023-04-18T15:16:21.839Z,34.60
2023-04-18T15:18:49.119Z,35.30
2023-04-18T15:21:16.359Z,34.40
2023-04-18T15:23:43.589Z,36.20
2023-04-18T15:26:10.758Z,34.40
2023-04-18T15:28:37.941Z,34.30
2023-04-18T15:31:07.370Z,33.90
2023-04-18T15:33:34.876Z,33.70
2023-04-18T15:36:02.068Z,33.10
2023-04-18T15:38:31.550Z,31.60
2023-04-18T15:41:00.025Z,30.30
2023-04-18T15:43:27.197Z,29.70
2023-04-18T15:45:54.374Z,29.50
2023-04-18T15:48:21.586Z,29.10
2023-04-18T15:50:52.246Z,28.70
2023-04-18T15:53:19.520Z,28.40
2023-04-18T15:55:46.892Z,28.40
2023-04-18T15:58:14.081Z,28.20
2023-04-18T16:00:41.678Z,28.10
2023-04-18T16:03:10.375Z,27.50
2023-04-18T16:05:37.804Z,27.60
2023-04-18T16:08:05.435Z,28.00
2023-04-18T16:10:32.579Z,28.10
2023-04-18T16:13:00.017Z,27.90
2023-04-18T16:15:27.282Z,27.80
2023-04-18T16:17:54.761Z,28.30
2023-04-18T16:20:22.008Z,28.80
2023-04-18T16:22:49.346Z,29.30
2023-04-18T16:25:16.572Z,29.50
2023-04-18T16:27:43.813Z,29.80
2023-04-18T16:30:11.776Z,30.60
2023-04-18T16:32:39.131Z,31.40
2023-04-18T16:35:10.064Z,32.20
2023-04-18T16:37:38.334Z,32.60
2023-04-18T16:40:07.104Z,32.40
2023-04-18T16:42:34.322Z,31.80
2023-04-18T16:45:02.293Z,32.60
2023-04-18T16:47:31.985Z,31.80
2023-04-18T16:49:59.293Z,32.40
2023-04-18T16:52:26.787Z,33.40
2023-04-18T16:54:54.088Z,34.40
2023-04-18T16:57:21.337Z,34.80
2023-04-18T16:59:48.592Z,35.10
2023-04-18T17:02:16.213Z,34.20
2023-04-18T17:04:43.541Z,33.40
2023-04-18T17:07:10.814Z,33.00
2023-04-18T17:09:40.345Z,33.50
2023-04-18T17:12:07.587Z,34.20
2023-04-18T17:14:37.016Z,34.90
2023-04-18T17:17:04.266Z,35.50
2023-04-18T17:19:31.448Z,36.40
2023-04-18T17:21:58.641Z,37.10
2023-04-18T17:24:25.797Z,37.70
2023-04-18T17:26:52.956Z,38.20
2023-04-18T17:29:22.705Z,38.70
2023-04-18T17:31:50.677Z,39.20
2023-04-18T17:34:18.259Z,40.10
2023-04-18T17:36:45.593Z,40.80
2023-04-18T17:39:13.115Z,41.50
2023-04-18T17:41:40.544Z,42.10
2023-04-18T17:44:08.246Z,42.80
2023-04-18T17:46:35.875Z,43.20
2023-04-18T17:49:04.248Z,43.80
2023-04-18T17:51:31.576Z,44.60
2023-04-18T17:53:58.802Z,45.50
2023-04-18T17:56:26.872Z,45.60
2023-04-18T17:58:56.463Z,46.40
2023-04-18T18:01:26.125Z,46.70
2023-04-18T18:03:53.639Z,46.90
2023-04-18T18:06:21.305Z,47.90
2023-04-18T18:08:48.658Z,48.00
2023-04-18T18:11:16.286Z,48.40
2023-04-18T18:13:43.760Z,48.70
2023-04-18T18:16:10.958Z,49.20
2023-04-18T18:18:38.841Z,49.60
2023-04-18T18:21:08.633Z,49.60
2023-04-18T18:23:35.948Z,49.40
2023-04-18T18:26:04.077Z,49.30
2023-04-18T18:28:31.321Z,49.20
2023-04-18T18:30:58.731Z,49.70
2023-04-18T18:33:26.221Z,49.90
2023-04-18T18:35:53.769Z,50.60
2023-04-18T18:38:21.056Z,51.20
2023-04-18T18:40:48.253Z,51.80
2023-04-18T18:43:15.477Z,52.40
2023-04-18T18:45:42.659Z,52.70
2023-04-18T18:48:10.472Z,53.00
2023-04-18T18:50:37.716Z,52.70
2023-04-18T18:53:06.065Z,52.30
2023-04-18T18:55:33.339Z,52.00
2023-04-18T18:58:00.623Z,52.00
2023-04-18T19:00:28.170Z,52.10
2023-04-18T19:02:55.673Z,52.70
2023-04-18T19:05:22.970Z,53.50
2023-04-18T19:07:51.481Z,53.80
2023-04-18T19:10:18.853Z,53.80
2023-04-18T19:12:46.110Z,54.30
2023-04-18T19:15:13.339Z,54.40
2023-04-18T19:17:41.548Z,55.10
2023-04-18T19:20:09.147Z,55.70
2023-04-18T19:22:37.265Z,55.80
2023-04-18T19:25:04.832Z,56.00
2023-04-18T19:27:32.093Z,56.50
2023-04-18T19:29:59.323Z,56.80
2023-04-18T19:32:26.884Z,56.80
2023-04-18T19:34:54.157Z,57.00
2023-04-18T19:37:21.599Z,57.20
2023-04-18T19:39:48.780Z,57.30
2023-04-18T19:42:16.056Z,57.50
2023-04-18T19:44:43.356Z,57.70
2023-04-18T19:47:10.547Z,58.10
2023-04-18T19:49:37.818Z,58.10
2023-04-18T19:52:06.117Z,58.20
2023-04-18T19:54:33.565Z,58.40
2023-04-18T19:57:01.365Z,58.60
2023-04-18T19:59:28.560Z,59.00
2023-04-18T20:01:57.797Z,59.00
2023-04-18T20:04:26.850Z,60.30
2023-04-18T20:06:55.390Z,59.60
2023-04-18T20:09:22.668Z,59.90
2023-04-18T20:11:49.863Z,60.20
2023-04-18T20:14:19.411Z,60.30
2023-04-18T20:16:49.477Z,60.30
2023-04-18T20:19:17.741Z,60.60
2023-04-18T20:21:45.209Z,61.20
2023-04-18T20:24:13.435Z,60.90
2023-04-18T20:26:40.621Z,61.30
2023-04-18T20:29:08.337Z,62.30
2023-04-18T20:31:37.620Z,61.20
2023-04-18T20:34:04.992Z,61.20
2023-04-18T20:36:34.335Z,60.90
2023-04-18T20:39:02.427Z,61.80
2023-04-18T20:41:30.966Z,61.60
2023-04-18T20:43:59.800Z,61.80
2023-04-18T20:46:27.031Z,60.80
2023-04-18T20:48:54.198Z,61.50
2023-04-18T20:51:21.465Z,61.80
2023-04-18T20:53:48.632Z,62.10
2023-04-18T20:56:16.021Z,62.00
2023-04-18T20:58:43.237Z,62.20
2023-04-18T21:01:10.442Z,62.40
2023-04-18T21:03:37.818Z,62.40
2023-04-18T21:06:05.309Z,62.20
2023-04-18T21:08:34.995Z,62.10
2023-04-18T21:11:02.268Z,62.30
2023-04-18T21:13:31.608Z,62.30
2023-04-18T21:15:58.885Z,62.40
2023-04-18T21:18:26.137Z,62.80
2023-04-18T21:20:53.380Z,62.90
2023-04-18T21:23:22.594Z,62.80
2023-04-18T21:25:49.916Z,62.80
2023-04-18T21:28:20.332Z,63.00
2023-04-18T21:30:47.623Z,63.20
2023-04-18T21:33:15.268Z,63.40
2023-04-18T21:35:42.585Z,63.60
2023-04-18T21:38:09.884Z,63.80
2023-04-18T21:40:37.507Z,64.00
2023-04-18T21:43:04.755Z,64.40
2023-04-18T21:45:32.099Z,64.40
2023-04-18T21:47:59.407Z,64.60
2023-04-18T21:50:26.761Z,64.60
2023-04-18T21:52:53.944Z,64.80
2023-04-18T21:55:21.227Z,64.80
2023-04-18T21:57:48.408Z,64.90
2023-04-18T22:00:16.565Z,65.10
2023-04-18T22:02:43.940Z,65.30
2023-04-18T22:05:12.876Z,65.50
2023-04-18T22:07:50.630Z,65.50
2023-04-18T22:10:25.115Z,65.70
2023-04-18T22:12:55.741Z,66.00
2023-04-18T22:15:24.563Z,65.90
2023-04-18T22:17:51.778Z,66.10
2023-04-18T22:20:19.012Z,66.20
2023-04-18T22:22:46.243Z,66.10
2023-04-18T22:25:13.461Z,66.20
2023-04-18T22:27:42.963Z,66.30
2023-04-18T22:30:10.809Z,66.50
2023-04-18T22:32:38.192Z,66.50
2023-04-18T22:35:06.603Z,66.50
2023-04-18T22:37:33.833Z,66.40
2023-04-18T22:40:01.460Z,66.40
2023-04-18T22:42:29.977Z,66.50
2023-04-18T22:44:57.598Z,66.80
2023-04-18T22:47:24.828Z,66.70
2023-04-18T22:49:52.493Z,66.60
2023-04-18T22:52:20.366Z,66.70
2023-04-18T22:54:47.554Z,66.80
2023-04-18T22:57:14.763Z,67.00
2023-04-18T22:59:42.005Z,67.10
2023-04-18T23:02:10.481Z,66.90
2023-04-18T23:04:37.946Z,67.10
2023-04-18T23:07:05.373Z,66.90
2023-04-18T23:09:33.250Z,67.00
2023-04-18T23:12:02.206Z,67.10
2023-04-18T23:14:30.021Z,67.00
2023-04-18T23:16:57.207Z,67.20
2023-04-18T23:19:24.359Z,67.00
2023-04-18T23:21:54.160Z,67.00
2023-04-18T23:24:21.390Z,67.20
2023-04-18T23:26:48.547Z,67.20
2023-04-18T23:29:15.897Z,67.20
2023-04-18T23:31:43.251Z,67.20
2023-04-18T23:34:10.813Z,67.40
2023-04-18T23:36:38.054Z,66.60
2023-04-18T23:39:05.325Z,67.30
2023-04-18T23:41:32.727Z,67.50
2023-04-18T23:43:59.935Z,67.50
2023-04-18T23:46:27.721Z,66.80
2023-04-18T23:48:54.922Z,67.60
2023-04-18T23:51:22.336Z,67.70
2023-04-18T23:53:49.526Z,67.70
2023-04-18T23:56:16.763Z,67.80
2023-04-18T23:58:43.995Z,67.90
